sensor_id;sensor_type;location;lat;lon;timestamp;temperature;humidity
16515;DHT22;8370;52.556;7.970;2023-01-16T00:00:42;4.90;99.90
16515;DHT22;8370;52.556;7.970;2023-01-16T00:03:08;4.90;99.90
16515;DHT22;8370;52.556;7.970;2023-01-16T00:05:33;5.00;99.90
16515;DHT22;8370;52.556;7.970;2023-01-16T00:07:59;5.00;99.90
16515;DHT22;8370;52.556;7.970;2023-01-16T00:10:24;5.00;99.90
16515;DHT22;8370;52.556;7.970;2023-01-16T00:12:50;5.10;99.90
16515;DHT22;8370;52.556;7.970;2023-01-16T00:15:16;5.10;99.90
16515;DHT22;8370;52.556;7.970;2023-01-16T00:17:41;5.20;99.90
16515;DHT22;8370;52.556;7.970;2023-01-16T00:20:07;5.20;99.90
16515;DHT22;8370;52.556;7.970;2023-01-16T00:22:33;5.30;99.90
16515;DHT22;8370;52.556;7.970;2023-01-16T00:24:58;5.30;99.90
16515;DHT22;8370;52.556;7.970;2023-01-16T00:27:24;5.40;99.90
16515;DHT22;8370;52.556;7.970;2023-01-16T00:29:49;5.50;99.90
16515;DHT22;8370;52.556;7.970;2023-01-16T00:32:15;5.60;99.90
16515;DHT22;8370;52.556;7.970;2023-01-16T00:34:41;5.60;99.90
16515;DHT22;8370;52.556;7.970;2023-01-16T00:37:06;5.60;99.90
16515;DHT22;8370;52.556;7.970;2023-01-16T00:39:32;5.50;99.90
16515;DHT22;8370;52.556;7.970;2023-01-16T00:41:58;5.50;99.90
16515;DHT22;8370;52.556;7.970;2023-01-16T00:44:24;5.50;99.90
16515;DHT22;8370;52.556;7.970;2023-01-16T00:46:49;5.50;99.90
16515;DHT22;8370;52.556;7.970;2023-01-16T00:49:15;5.50;99.90
16515;DHT22;8370;52.556;7.970;2023-01-16T00:51:40;5.50;99.90
16515;DHT22;8370;52.556;7.970;2023-01-16T00:54:06;5.50;99.90
16515;DHT22;8370;52.556;7.970;2023-01-16T00:56:31;5.50;99.90
16515;DHT22;8370;52.556;7.970;2023-01-16T00:58:57;5.50;99.90
16515;DHT22;8370;52.556;7.970;2023-01-16T01:01:23;5.50;99.90
16515;DHT22;8370;52.556;7.970;2023-01-16T01:03:48;5.50;99.90
16515;DHT22;8370;52.556;7.970;2023-01-16T01:06:14;5.60;99.90
16515;DHT22;8370;52.556;7.970;2023-01-16T01:08:39;5.70;99.90
16515;DHT22;8370;52.556;7.970;2023-01-16T01:11:13;5.70;99.90
16515;DHT22;8370;52.556;7.970;2023-01-16T01:13:39;5.70;99.90
16515;DHT22;8370;52.556;7.970;2023-01-16T01:16:06;5.70;99.90
16515;DHT22;8370;52.556;7.970;2023-01-16T01:18:32;5.80;99.90
16515;DHT22;8370;52.556;7.970;2023-01-16T01:20:58;5.80;99.90
16515;DHT22;8370;52.556;7.970;2023-01-16T01:23:23;5.90;99.90
16515;DHT22;8370;52.556;7.970;2023-01-16T01:25:49;5.90;99.90
16515;DHT22;8370;52.556;7.970;2023-01-16T01:28:15;5.90;99.90
16515;DHT22;8370;52.556;7.970;2023-01-16T01:30:41;5.90;99.90
16515;DHT22;8370;52.556;7.970;2023-01-16T01:33:06;5.90;99.90
16515;DHT22;8370;52.556;7.970;2023-01-16T01:35:34;5.90;99.90
16515;DHT22;8370;52.556;7.970;2023-01-16T01:37:59;5.90;99.90
16515;DHT22;8370;52.556;7.970;2023-01-16T01:40:25;5.90;99.90
16515;DHT22;8370;52.556;7.970;2023-01-16T01:42:50;5.80;99.90
16515;DHT22;8370;52.556;7.970;2023-01-16T01:45:24;5.80;99.90
16515;DHT22;8370;52.556;7.970;2023-01-16T01:53:36;5.80;99.90
16515;DHT22;8370;52.556;7.970;2023-01-16T01:56:14;5.70;99.90
16515;DHT22;8370;52.556;7.970;2023-01-16T01:58:41;5.60;99.90
16515;DHT22;8370;52.556;7.970;2023-01-16T02:01:07;5.50;99.90
16515;DHT22;8370;52.556;7.970;2023-01-16T02:03:40;5.40;99.90
16515;DHT22;8370;52.556;7.970;2023-01-16T02:06:12;5.30;99.90
16515;DHT22;8370;52.556;7.970;2023-01-16T02:08:40;5.30;99.90
16515;DHT22;8370;52.556;7.970;2023-01-16T02:11:13;5.20;99.90
16515;DHT22;8370;52.556;7.970;2023-01-16T02:13:55;5.20;99.90
16515;DHT22;8370;52.556;7.970;2023-01-16T02:16:21;5.20;99.90
16515;DHT22;8370;52.556;7.970;2023-01-16T02:19:11;5.20;99.90
16515;DHT22;8370;52.556;7.970;2023-01-16T02:21:55;5.20;99.90
16515;DHT22;8370;52.556;7.970;2023-01-16T02:41:10;5.30;99.90
16515;DHT22;8370;52.556;7.970;2023-01-16T02:43:58;5.40;99.90
16515;DHT22;8370;52.556;7.970;2023-01-16T02:46:50;5.40;99.90
16515;DHT22;8370;52.556;7.970;2023-01-16T02:49:37;5.40;99.90
16515;DHT22;8370;52.556;7.970;2023-01-16T02:52:15;5.40;99.90
16515;DHT22;8370;52.556;7.970;2023-01-16T02:55:01;5.40;99.90
16515;DHT22;8370;52.556;7.970;2023-01-16T02:57:51;5.30;99.90
16515;DHT22;8370;52.556;7.970;2023-01-16T03:00:19;5.20;99.90
16515;DHT22;8370;52.556;7.970;2023-01-16T03:02:45;5.20;99.90
16515;DHT22;8370;52.556;7.970;2023-01-16T03:05:11;5.10;99.90
16515;DHT22;8370;52.556;7.970;2023-01-16T03:10:51;5.10;99.90
16515;DHT22;8370;52.556;7.970;2023-01-16T03:19:13;5.00;99.90
16515;DHT22;8370;52.556;7.970;2023-01-16T03:22:34;5.00;99.90
16515;DHT22;8370;52.556;7.970;2023-01-16T03:24:49;4.90;99.90
16515;DHT22;8370;52.556;7.970;2023-01-16T03:27:49;4.80;99.90
16515;DHT22;8370;52.556;7.970;2023-01-16T03:31:05;4.90;99.90
16515;DHT22;8370;52.556;7.970;2023-01-16T03:33:11;4.80;99.90
16515;DHT22;8370;52.556;7.970;2023-01-16T03:35:50;4.90;99.90
16515;DHT22;8370;52.556;7.970;2023-01-16T03:38:18;4.90;99.90
16515;DHT22;8370;52.556;7.970;2023-01-16T03:40:46;5.00;99.90
16515;DHT22;8370;52.556;7.970;2023-01-16T03:43:39;5.00;99.90
16515;DHT22;8370;52.556;7.970;2023-01-16T03:46:15;5.00;99.90
16515;DHT22;8370;52.556;7.970;2023-01-16T03:48:48;5.10;99.90
16515;DHT22;8370;52.556;7.970;2023-01-16T03:51:20;5.10;99.90
16515;DHT22;8370;52.556;7.970;2023-01-16T03:53:57;5.10;99.90
16515;DHT22;8370;52.556;7.970;2023-01-16T03:59:11;5.20;99.90
16515;DHT22;8370;52.556;7.970;2023-01-16T04:01:47;5.10;99.90
16515;DHT22;8370;52.556;7.970;2023-01-16T04:04:20;5.20;99.90
16515;DHT22;8370;52.556;7.970;2023-01-16T04:07:09;5.20;99.90
16515;DHT22;8370;52.556;7.970;2023-01-16T04:09:56;5.10;99.90
16515;DHT22;8370;52.556;7.970;2023-01-16T04:12:29;5.10;99.90
16515;DHT22;8370;52.556;7.970;2023-01-16T04:14:59;5.10;99.90
16515;DHT22;8370;52.556;7.970;2023-01-16T04:17:26;5.00;99.90
16515;DHT22;8370;52.556;7.970;2023-01-16T04:19:52;4.90;99.90
16515;DHT22;8370;52.556;7.970;2023-01-16T04:22:21;4.70;99.90
16515;DHT22;8370;52.556;7.970;2023-01-16T04:24:47;4.70;99.90
16515;DHT22;8370;52.556;7.970;2023-01-16T04:27:13;4.60;99.90
16515;DHT22;8370;52.556;7.970;2023-01-16T04:29:38;4.50;99.90
16515;DHT22;8370;52.556;7.970;2023-01-16T04:32:04;4.50;99.90
16515;DHT22;8370;52.556;7.970;2023-01-16T04:34:29;4.40;99.90
16515;DHT22;8370;52.556;7.970;2023-01-16T04:36:55;4.50;99.90
16515;DHT22;8370;52.556;7.970;2023-01-16T04:39:20;4.40;99.90
16515;DHT22;8370;52.556;7.970;2023-01-16T04:41:46;4.50;99.90
16515;DHT22;8370;52.556;7.970;2023-01-16T04:44:15;4.40;99.90
16515;DHT22;8370;52.556;7.970;2023-01-16T04:46:41;4.40;99.90
16515;DHT22;8370;52.556;7.970;2023-01-16T04:49:07;4.40;99.90
16515;DHT22;8370;52.556;7.970;2023-01-16T04:51:34;4.40;99.90
16515;DHT22;8370;52.556;7.970;2023-01-16T04:53:59;4.40;99.90
16515;DHT22;8370;52.556;7.970;2023-01-16T04:56:25;4.40;99.90
16515;DHT22;8370;52.556;7.970;2023-01-16T04:58:50;4.40;99.90
16515;DHT22;8370;52.556;7.970;2023-01-16T05:01:18;4.30;99.90
16515;DHT22;8370;52.556;7.970;2023-01-16T05:03:43;4.30;99.90
16515;DHT22;8370;52.556;7.970;2023-01-16T05:06:09;4.30;99.90
16515;DHT22;8370;52.556;7.970;2023-01-16T05:08:34;4.30;99.90
16515;DHT22;8370;52.556;7.970;2023-01-16T05:11:00;4.30;99.90
16515;DHT22;8370;52.556;7.970;2023-01-16T05:13:28;4.30;99.90
16515;DHT22;8370;52.556;7.970;2023-01-16T05:15:53;4.40;99.90
16515;DHT22;8370;52.556;7.970;2023-01-16T05:18:19;4.40;99.90
16515;DHT22;8370;52.556;7.970;2023-01-16T05:20:44;4.40;99.90
16515;DHT22;8370;52.556;7.970;2023-01-16T05:23:10;4.30;99.90
16515;DHT22;8370;52.556;7.970;2023-01-16T05:25:36;4.30;99.90
16515;DHT22;8370;52.556;7.970;2023-01-16T05:28:02;4.30;99.90
16515;DHT22;8370;52.556;7.970;2023-01-16T05:30:28;4.20;99.90
16515;DHT22;8370;52.556;7.970;2023-01-16T05:32:53;4.20;99.90
16515;DHT22;8370;52.556;7.970;2023-01-16T05:35:19;4.10;99.90
16515;DHT22;8370;52.556;7.970;2023-01-16T05:37:45;4.00;99.90
16515;DHT22;8370;52.556;7.970;2023-01-16T05:40:11;4.00;99.90
16515;DHT22;8370;52.556;7.970;2023-01-16T05:42:37;3.90;99.90
16515;DHT22;8370;52.556;7.970;2023-01-16T05:45:03;3.80;99.90
16515;DHT22;8370;52.556;7.970;2023-01-16T05:47:29;3.70;99.90
16515;DHT22;8370;52.556;7.970;2023-01-16T05:49:55;3.60;99.90
16515;DHT22;8370;52.556;7.970;2023-01-16T05:52:26;3.50;99.90
16515;DHT22;8370;52.556;7.970;2023-01-16T05:54:53;3.50;99.90
16515;DHT22;8370;52.556;7.970;2023-01-16T05:57:19;3.40;99.90
16515;DHT22;8370;52.556;7.970;2023-01-16T05:59:48;3.40;99.90
16515;DHT22;8370;52.556;7.970;2023-01-16T06:02:13;3.40;99.90
16515;DHT22;8370;52.556;7.970;2023-01-16T06:04:39;3.30;99.90
16515;DHT22;8370;52.556;7.970;2023-01-16T06:07:04;3.30;99.90
16515;DHT22;8370;52.556;7.970;2023-01-16T06:09:30;3.30;99.90
16515;DHT22;8370;52.556;7.970;2023-01-16T06:11:55;3.30;99.90
16515;DHT22;8370;52.556;7.970;2023-01-16T06:14:21;3.20;99.90
16515;DHT22;8370;52.556;7.970;2023-01-16T06:16:46;3.20;99.90
16515;DHT22;8370;52.556;7.970;2023-01-16T06:19:12;3.10;99.90
16515;DHT22;8370;52.556;7.970;2023-01-16T06:21:37;3.10;99.90
16515;DHT22;8370;52.556;7.970;2023-01-16T06:24:03;3.10;99.90
16515;DHT22;8370;52.556;7.970;2023-01-16T06:26:29;3.10;99.90
16515;DHT22;8370;52.556;7.970;2023-01-16T06:28:54;3.10;99.90
16515;DHT22;8370;52.556;7.970;2023-01-16T06:31:21;3.10;99.90
16515;DHT22;8370;52.556;7.970;2023-01-16T06:33:47;3.00;99.90
16515;DHT22;8370;52.556;7.970;2023-01-16T06:36:12;3.00;99.90
16515;DHT22;8370;52.556;7.970;2023-01-16T06:38:38;3.00;99.90
16515;DHT22;8370;52.556;7.970;2023-01-16T06:41:03;2.90;99.90
16515;DHT22;8370;52.556;7.970;2023-01-16T06:43:29;2.90;99.90
16515;DHT22;8370;52.556;7.970;2023-01-16T06:45:55;2.80;99.90
16515;DHT22;8370;52.556;7.970;2023-01-16T06:48:20;2.80;99.90
16515;DHT22;8370;52.556;7.970;2023-01-16T06:50:46;2.80;99.90
16515;DHT22;8370;52.556;7.970;2023-01-16T06:53:12;2.70;99.90
16515;DHT22;8370;52.556;7.970;2023-01-16T06:55:38;2.70;99.90
16515;DHT22;8370;52.556;7.970;2023-01-16T06:58:04;2.60;99.90
16515;DHT22;8370;52.556;7.970;2023-01-16T07:00:30;2.60;99.90
16515;DHT22;8370;52.556;7.970;2023-01-16T07:02:56;2.60;99.90
16515;DHT22;8370;52.556;7.970;2023-01-16T07:05:23;2.60;99.90
16515;DHT22;8370;52.556;7.970;2023-01-16T07:07:49;2.60;99.90
16515;DHT22;8370;52.556;7.970;2023-01-16T07:10:16;2.60;99.90
16515;DHT22;8370;52.556;7.970;2023-01-16T07:12:42;2.60;99.90
16515;DHT22;8370;52.556;7.970;2023-01-16T07:15:08;2.50;99.90
16515;DHT22;8370;52.556;7.970;2023-01-16T07:17:53;2.60;99.90
16515;DHT22;8370;52.556;7.970;2023-01-16T07:20:37;2.60;99.90
16515;DHT22;8370;52.556;7.970;2023-01-16T07:23:23;2.60;99.90
16515;DHT22;8370;52.556;7.970;2023-01-16T07:25:50;2.60;99.90
16515;DHT22;8370;52.556;7.970;2023-01-16T07:28:16;2.60;99.90
16515;DHT22;8370;52.556;7.970;2023-01-16T07:30:43;2.70;99.90
16515;DHT22;8370;52.556;7.970;2023-01-16T07:33:09;2.80;99.90
16515;DHT22;8370;52.556;7.970;2023-01-16T07:35:35;2.80;99.90
16515;DHT22;8370;52.556;7.970;2023-01-16T07:38:00;2.80;99.90
16515;DHT22;8370;52.556;7.970;2023-01-16T07:40:26;2.90;99.90
16515;DHT22;8370;52.556;7.970;2023-01-16T07:42:52;2.90;99.90
16515;DHT22;8370;52.556;7.970;2023-01-16T07:45:18;2.90;99.90
16515;DHT22;8370;52.556;7.970;2023-01-16T07:47:43;3.00;99.90
16515;DHT22;8370;52.556;7.970;2023-01-16T07:50:09;3.00;99.90
16515;DHT22;8370;52.556;7.970;2023-01-16T07:52:35;3.10;99.90
16515;DHT22;8370;52.556;7.970;2023-01-16T07:55:00;3.10;99.90
16515;DHT22;8370;52.556;7.970;2023-01-16T07:57:26;3.10;99.90
16515;DHT22;8370;52.556;7.970;2023-01-16T07:59:52;3.10;99.90
16515;DHT22;8370;52.556;7.970;2023-01-16T08:02:18;3.20;99.90
16515;DHT22;8370;52.556;7.970;2023-01-16T08:04:44;3.20;99.90
16515;DHT22;8370;52.556;7.970;2023-01-16T08:07:09;3.20;99.90
16515;DHT22;8370;52.556;7.970;2023-01-16T08:09:35;3.30;99.90
16515;DHT22;8370;52.556;7.970;2023-01-16T08:12:00;3.40;99.90
16515;DHT22;8370;52.556;7.970;2023-01-16T08:14:26;3.40;99.90
16515;DHT22;8370;52.556;7.970;2023-01-16T08:16:51;3.40;99.90
16515;DHT22;8370;52.556;7.970;2023-01-16T08:19:17;3.50;99.90
16515;DHT22;8370;52.556;7.970;2023-01-16T08:21:42;3.50;99.90
16515;DHT22;8370;52.556;7.970;2023-01-16T08:24:08;3.50;99.90
16515;DHT22;8370;52.556;7.970;2023-01-16T08:26:35;3.60;99.90
16515;DHT22;8370;52.556;7.970;2023-01-16T08:29:01;3.70;99.90
16515;DHT22;8370;52.556;7.970;2023-01-16T08:31:28;3.70;99.90
16515;DHT22;8370;52.556;7.970;2023-01-16T08:33:53;3.70;99.90
16515;DHT22;8370;52.556;7.970;2023-01-16T08:36:19;3.80;99.90
16515;DHT22;8370;52.556;7.970;2023-01-16T08:38:49;3.90;99.90
16515;DHT22;8370;52.556;7.970;2023-01-16T08:41:15;3.90;99.90
16515;DHT22;8370;52.556;7.970;2023-01-16T08:44:00;3.90;99.90
16515;DHT22;8370;52.556;7.970;2023-01-16T08:46:52;4.00;99.90
16515;DHT22;8370;52.556;7.970;2023-01-16T08:49:38;4.00;99.90
16515;DHT22;8370;52.556;7.970;2023-01-16T08:52:22;4.10;99.90
16515;DHT22;8370;52.556;7.970;2023-01-16T08:54:47;4.10;99.90
16515;DHT22;8370;52.556;7.970;2023-01-16T08:57:13;4.10;99.90
16515;DHT22;8370;52.556;7.970;2023-01-16T08:59:38;4.10;99.90
16515;DHT22;8370;52.556;7.970;2023-01-16T09:02:04;4.10;99.90
16515;DHT22;8370;52.556;7.970;2023-01-16T09:04:31;4.20;99.90
16515;DHT22;8370;52.556;7.970;2023-01-16T09:06:56;4.20;99.90
16515;DHT22;8370;52.556;7.970;2023-01-16T09:09:22;4.20;99.90
16515;DHT22;8370;52.556;7.970;2023-01-16T09:11:54;4.30;99.90
16515;DHT22;8370;52.556;7.970;2023-01-16T09:14:38;4.30;99.90
16515;DHT22;8370;52.556;7.970;2023-01-16T09:17:04;4.30;99.90
16515;DHT22;8370;52.556;7.970;2023-01-16T09:19:31;4.40;99.90
16515;DHT22;8370;52.556;7.970;2023-01-16T09:21:56;4.50;99.90
16515;DHT22;8370;52.556;7.970;2023-01-16T09:24:22;4.50;99.90
16515;DHT22;8370;52.556;7.970;2023-01-16T09:26:47;4.50;99.90
16515;DHT22;8370;52.556;7.970;2023-01-16T09:29:13;4.60;99.90
16515;DHT22;8370;52.556;7.970;2023-01-16T09:31:38;4.70;99.90
16515;DHT22;8370;52.556;7.970;2023-01-16T09:34:04;4.70;99.90
16515;DHT22;8370;52.556;7.970;2023-01-16T09:36:29;4.70;99.90
16515;DHT22;8370;52.556;7.970;2023-01-16T09:38:55;4.70;99.90
16515;DHT22;8370;52.556;7.970;2023-01-16T09:41:20;4.80;99.90
16515;DHT22;8370;52.556;7.970;2023-01-16T09:44:09;4.90;99.90
16515;DHT22;8370;52.556;7.970;2023-01-16T09:46:39;4.80;99.90
16515;DHT22;8370;52.556;7.970;2023-01-16T09:49:46;4.90;99.90
16515;DHT22;8370;52.556;7.970;2023-01-16T09:52:19;4.90;99.90
16515;DHT22;8370;52.556;7.970;2023-01-16T09:55:19;4.90;99.90
16515;DHT22;8370;52.556;7.970;2023-01-16T09:58:07;5.00;99.90
16515;DHT22;8370;52.556;7.970;2023-01-16T10:00:53;5.00;99.90
16515;DHT22;8370;52.556;7.970;2023-01-16T10:03:19;5.00;99.90
16515;DHT22;8370;52.556;7.970;2023-01-16T10:05:51;5.10;99.90
16515;DHT22;8370;52.556;7.970;2023-01-16T10:08:28;5.10;99.90
16515;DHT22;8370;52.556;7.970;2023-01-16T10:11:10;5.10;99.90
16515;DHT22;8370;52.556;7.970;2023-01-16T10:13:56;5.10;99.90
16515;DHT22;8370;52.556;7.970;2023-01-16T10:16:38;5.20;99.90
16515;DHT22;8370;52.556;7.970;2023-01-16T10:25:00;5.00;99.90
16515;DHT22;8370;52.556;7.970;2023-01-16T10:30:26;5.00;99.90
16515;DHT22;8370;52.556;7.970;2023-01-16T10:35:38;5.00;99.90
16515;DHT22;8370;52.556;7.970;2023-01-16T10:38:33;4.90;99.90
16515;DHT22;8370;52.556;7.970;2023-01-16T10:41:07;4.90;99.90
16515;DHT22;8370;52.556;7.970;2023-01-16T10:43:53;4.90;99.90
16515;DHT22;8370;52.556;7.970;2023-01-16T10:46:38;4.90;99.90
16515;DHT22;8370;52.556;7.970;2023-01-16T10:49:25;4.90;99.90
16515;DHT22;8370;52.556;7.970;2023-01-16T10:51:51;4.90;99.90
16515;DHT22;8370;52.556;7.970;2023-01-16T10:54:16;5.00;99.90
16515;DHT22;8370;52.556;7.970;2023-01-16T10:56:42;5.00;99.90
16515;DHT22;8370;52.556;7.970;2023-01-16T10:59:11;5.00;99.90
16515;DHT22;8370;52.556;7.970;2023-01-16T11:01:38;4.90;99.90
16515;DHT22;8370;52.556;7.970;2023-01-16T11:04:05;5.00;99.90
16515;DHT22;8370;52.556;7.970;2023-01-16T11:06:31;5.00;99.90
16515;DHT22;8370;52.556;7.970;2023-01-16T11:09:17;5.00;99.90
16515;DHT22;8370;52.556;7.970;2023-01-16T11:11:43;5.00;99.90
16515;DHT22;8370;52.556;7.970;2023-01-16T11:14:36;5.10;99.90
16515;DHT22;8370;52.556;7.970;2023-01-16T11:17:30;5.10;99.90
16515;DHT22;8370;52.556;7.970;2023-01-16T11:20:30;5.10;99.90
16515;DHT22;8370;52.556;7.970;2023-01-16T11:23:22;5.10;99.90
16515;DHT22;8370;52.556;7.970;2023-01-16T11:25:50;5.10;99.90
16515;DHT22;8370;52.556;7.970;2023-01-16T11:28:31;5.10;99.90
16515;DHT22;8370;52.556;7.970;2023-01-16T11:31:18;5.10;99.90
16515;DHT22;8370;52.556;7.970;2023-01-16T11:33:47;5.10;99.90
16515;DHT22;8370;52.556;7.970;2023-01-16T11:36:16;5.10;99.90
16515;DHT22;8370;52.556;7.970;2023-01-16T11:38:44;5.20;99.90
16515;DHT22;8370;52.556;7.970;2023-01-16T11:41:10;5.20;99.90
16515;DHT22;8370;52.556;7.970;2023-01-16T11:43:36;5.20;99.90
16515;DHT22;8370;52.556;7.970;2023-01-16T11:46:34;5.20;99.90
16515;DHT22;8370;52.556;7.970;2023-01-16T11:49:04;5.20;99.90
16515;DHT22;8370;52.556;7.970;2023-01-16T11:51:39;5.30;99.90
16515;DHT22;8370;52.556;7.970;2023-01-16T11:54:15;5.30;99.90
16515;DHT22;8370;52.556;7.970;2023-01-16T11:59:29;5.40;99.90
16515;DHT22;8370;52.556;7.970;2023-01-16T12:02:26;5.50;99.90
16515;DHT22;8370;52.556;7.970;2023-01-16T12:10:46;5.60;99.90
16515;DHT22;8370;52.556;7.970;2023-01-16T12:13:16;5.60;99.90
16515;DHT22;8370;52.556;7.970;2023-01-16T12:16:13;5.60;99.90
16515;DHT22;8370;52.556;7.970;2023-01-16T12:21:45;5.60;99.90
16515;DHT22;8370;52.556;7.970;2023-01-16T12:24:21;5.60;99.90
16515;DHT22;8370;52.556;7.970;2023-01-16T12:26:57;5.60;99.90
16515;DHT22;8370;52.556;7.970;2023-01-16T12:29:42;5.60;99.90
16515;DHT22;8370;52.556;7.970;2023-01-16T12:43:25;5.60;99.90
16515;DHT22;8370;52.556;7.970;2023-01-16T12:45:58;5.60;99.90
16515;DHT22;8370;52.556;7.970;2023-01-16T12:59:19;5.40;99.90
16515;DHT22;8370;52.556;7.970;2023-01-16T13:01:49;5.40;99.90
16515;DHT22;8370;52.556;7.970;2023-01-16T13:04:24;5.40;99.90
16515;DHT22;8370;52.556;7.970;2023-01-16T13:06:58;5.40;99.90
16515;DHT22;8370;52.556;7.970;2023-01-16T13:09:36;5.40;99.90
16515;DHT22;8370;52.556;7.970;2023-01-16T13:12:26;5.40;99.90
16515;DHT22;8370;52.556;7.970;2023-01-16T13:15:21;5.40;99.90
16515;DHT22;8370;52.556;7.970;2023-01-16T13:17:52;5.30;99.90
16515;DHT22;8370;52.556;7.970;2023-01-16T13:20:19;5.40;99.90
16515;DHT22;8370;52.556;7.970;2023-01-16T13:22:57;5.40;99.90
16515;DHT22;8370;52.556;7.970;2023-01-16T13:25:34;5.50;99.90
16515;DHT22;8370;52.556;7.970;2023-01-16T13:28:23;6.30;99.90
16515;DHT22;8370;52.556;7.970;2023-01-16T13:30:56;7.40;99.90
16515;DHT22;8370;52.556;7.970;2023-01-16T13:33:31;8.00;99.90
16515;DHT22;8370;52.556;7.970;2023-01-16T13:36:03;8.30;99.90
16515;DHT22;8370;52.556;7.970;2023-01-16T13:41:41;7.80;99.90
16515;DHT22;8370;52.556;7.970;2023-01-16T13:44:30;7.50;99.90
16515;DHT22;8370;52.556;7.970;2023-01-16T13:47:21;7.30;99.90
16515;DHT22;8370;52.556;7.970;2023-01-16T13:49:51;6.90;99.90
16515;DHT22;8370;52.556;7.970;2023-01-16T13:52:27;6.80;99.90
16515;DHT22;8370;52.556;7.970;2023-01-16T13:54:57;6.60;99.90
16515;DHT22;8370;52.556;7.970;2023-01-16T13:57:24;6.50;99.90
16515;DHT22;8370;52.556;7.970;2023-01-16T13:59:52;6.40;99.90
16515;DHT22;8370;52.556;7.970;2023-01-16T14:10:44;6.40;99.90
16515;DHT22;8370;52.556;7.970;2023-01-16T14:15:51;6.30;99.90
16515;DHT22;8370;52.556;7.970;2023-01-16T14:21:24;6.20;99.90
16515;DHT22;8370;52.556;7.970;2023-01-16T14:24:00;6.10;99.90
16515;DHT22;8370;52.556;7.970;2023-01-16T14:26:39;6.10;99.90
16515;DHT22;8370;52.556;7.970;2023-01-16T14:29:32;6.10;99.90
16515;DHT22;8370;52.556;7.970;2023-01-16T14:34:45;5.90;99.90
16515;DHT22;8370;52.556;7.970;2023-01-16T14:37:21;5.90;99.90
16515;DHT22;8370;52.556;7.970;2023-01-16T14:39:53;5.80;99.90
16515;DHT22;8370;52.556;7.970;2023-01-16T14:42:33;5.70;99.90
16515;DHT22;8370;52.556;7.970;2023-01-16T14:54:16;5.60;99.90
16515;DHT22;8370;52.556;7.970;2023-01-16T14:57:11;5.60;99.90
16515;DHT22;8370;52.556;7.970;2023-01-16T14:59:45;5.50;99.90
16515;DHT22;8370;52.556;7.970;2023-01-16T15:02:27;5.50;99.90
16515;DHT22;8370;52.556;7.970;2023-01-16T15:10:27;5.50;99.90
16515;DHT22;8370;52.556;7.970;2023-01-16T15:13:15;5.40;99.90
16515;DHT22;8370;52.556;7.970;2023-01-16T15:15:46;5.40;99.90
16515;DHT22;8370;52.556;7.970;2023-01-16T15:18:14;5.40;99.90
16515;DHT22;8370;52.556;7.970;2023-01-16T15:20:58;5.40;99.90
16515;DHT22;8370;52.556;7.970;2023-01-16T15:23:43;5.30;99.90
16515;DHT22;8370;52.556;7.970;2023-01-16T15:26:18;5.30;99.90
16515;DHT22;8370;52.556;7.970;2023-01-16T15:29:08;5.30;99.90
16515;DHT22;8370;52.556;7.970;2023-01-16T15:31:45;5.30;99.90
16515;DHT22;8370;52.556;7.970;2023-01-16T15:36:44;5.40;99.90
16515;DHT22;8370;52.556;7.970;2023-01-16T15:39:23;5.40;99.90
16515;DHT22;8370;52.556;7.970;2023-01-16T15:41:59;5.30;99.90
16515;DHT22;8370;52.556;7.970;2023-01-16T15:44:44;5.30;99.90
16515;DHT22;8370;52.556;7.970;2023-01-16T15:47:48;5.30;99.90
16515;DHT22;8370;52.556;7.970;2023-01-16T15:52:58;5.20;99.90
16515;DHT22;8370;52.556;7.970;2023-01-16T15:55:26;5.20;99.90
16515;DHT22;8370;52.556;7.970;2023-01-16T15:57:56;5.20;99.90
16515;DHT22;8370;52.556;7.970;2023-01-16T16:00:34;5.20;99.90
16515;DHT22;8370;52.556;7.970;2023-01-16T16:03:20;5.10;99.90
16515;DHT22;8370;52.556;7.970;2023-01-16T16:05:52;5.10;99.90
16515;DHT22;8370;52.556;7.970;2023-01-16T16:08:22;5.00;99.90
16515;DHT22;8370;52.556;7.970;2023-01-16T16:10:48;5.00;99.90
16515;DHT22;8370;52.556;7.970;2023-01-16T16:13:34;4.90;99.90
16515;DHT22;8370;52.556;7.970;2023-01-16T16:16:01;4.90;99.90
16515;DHT22;8370;52.556;7.970;2023-01-16T16:21:18;4.80;99.90
16515;DHT22;8370;52.556;7.970;2023-01-16T16:23:45;4.80;99.90
16515;DHT22;8370;52.556;7.970;2023-01-16T16:26:17;4.80;99.90
16515;DHT22;8370;52.556;7.970;2023-01-16T16:28:45;4.80;99.90
16515;DHT22;8370;52.556;7.970;2023-01-16T16:31:20;4.70;99.90
16515;DHT22;8370;52.556;7.970;2023-01-16T16:34:13;4.70;99.90
16515;DHT22;8370;52.556;7.970;2023-01-16T16:36:44;4.60;99.90
16515;DHT22;8370;52.556;7.970;2023-01-16T16:42:00;4.60;99.90
16515;DHT22;8370;52.556;7.970;2023-01-16T16:44:46;4.60;99.90
16515;DHT22;8370;52.556;7.970;2023-01-16T16:47:30;4.50;99.90
16515;DHT22;8370;52.556;7.970;2023-01-16T16:49:56;4.50;99.90
16515;DHT22;8370;52.556;7.970;2023-01-16T16:52:30;4.50;99.90
16515;DHT22;8370;52.556;7.970;2023-01-16T16:55:00;4.50;99.90
16515;DHT22;8370;52.556;7.970;2023-01-16T16:57:32;4.50;99.90
16515;DHT22;8370;52.556;7.970;2023-01-16T16:59:59;4.50;99.90
16515;DHT22;8370;52.556;7.970;2023-01-16T17:02:24;4.50;99.90
16515;DHT22;8370;52.556;7.970;2023-01-16T17:04:50;4.50;99.90
16515;DHT22;8370;52.556;7.970;2023-01-16T17:07:16;4.60;99.90
16515;DHT22;8370;52.556;7.970;2023-01-16T17:09:42;4.60;99.90
16515;DHT22;8370;52.556;7.970;2023-01-16T17:12:16;4.60;99.90
16515;DHT22;8370;52.556;7.970;2023-01-16T17:14:42;4.60;99.90
16515;DHT22;8370;52.556;7.970;2023-01-16T17:17:11;4.60;99.90
16515;DHT22;8370;52.556;7.970;2023-01-16T17:19:38;4.60;99.90
16515;DHT22;8370;52.556;7.970;2023-01-16T17:22:03;4.60;99.90
16515;DHT22;8370;52.556;7.970;2023-01-16T17:24:29;4.70;99.90
16515;DHT22;8370;52.556;7.970;2023-01-16T17:26:54;4.60;99.90
16515;DHT22;8370;52.556;7.970;2023-01-16T17:29:20;4.60;99.90
16515;DHT22;8370;52.556;7.970;2023-01-16T17:31:46;4.70;99.90
16515;DHT22;8370;52.556;7.970;2023-01-16T17:34:16;4.60;99.90
16515;DHT22;8370;52.556;7.970;2023-01-16T17:36:43;4.60;99.90
16515;DHT22;8370;52.556;7.970;2023-01-16T17:39:08;4.60;99.90
16515;DHT22;8370;52.556;7.970;2023-01-16T17:41:36;4.60;99.90
16515;DHT22;8370;52.556;7.970;2023-01-16T17:44:24;4.60;99.90
16515;DHT22;8370;52.556;7.970;2023-01-16T17:47:09;4.60;99.90
16515;DHT22;8370;52.556;7.970;2023-01-16T17:49:35;4.60;99.90
16515;DHT22;8370;52.556;7.970;2023-01-16T17:52:20;4.60;99.90
16515;DHT22;8370;52.556;7.970;2023-01-16T17:54:46;4.60;99.90
16515;DHT22;8370;52.556;7.970;2023-01-16T17:57:31;4.60;99.90
16515;DHT22;8370;52.556;7.970;2023-01-16T17:59:57;4.60;99.90
16515;DHT22;8370;52.556;7.970;2023-01-16T18:02:22;4.60;99.90
16515;DHT22;8370;52.556;7.970;2023-01-16T18:04:48;4.60;99.90
16515;DHT22;8370;52.556;7.970;2023-01-16T18:07:15;4.60;99.90
16515;DHT22;8370;52.556;7.970;2023-01-16T18:09:41;4.60;99.90
16515;DHT22;8370;52.556;7.970;2023-01-16T18:12:08;4.60;99.90
16515;DHT22;8370;52.556;7.970;2023-01-16T18:14:53;4.60;99.90
16515;DHT22;8370;52.556;7.970;2023-01-16T18:17:37;4.70;99.90
16515;DHT22;8370;52.556;7.970;2023-01-16T18:20:04;4.70;99.90
16515;DHT22;8370;52.556;7.970;2023-01-16T18:22:32;4.70;99.90
16515;DHT22;8370;52.556;7.970;2023-01-16T18:25:00;4.70;99.90
16515;DHT22;8370;52.556;7.970;2023-01-16T18:27:25;4.70;99.90
16515;DHT22;8370;52.556;7.970;2023-01-16T18:29:51;4.70;99.90
16515;DHT22;8370;52.556;7.970;2023-01-16T18:32:17;4.70;99.90
16515;DHT22;8370;52.556;7.970;2023-01-16T18:34:50;4.70;99.90